createdAt,value
2018-03-27T00:00:24.393Z,52.90
2018-03-27T00:02:28.413Z,61.90
2018-03-27T00:04:32.429Z,51.43
2018-03-27T00:06:36.465Z,47.43
2018-03-27T00:08:40.466Z,50.87
2018-03-27T00:10:46.590Z,47.00
2018-03-27T00:12:50.607Z,52.03
2018-03-27T00:14:54.679Z,48.33
2018-03-27T00:16:58.710Z,46.33
2018-03-27T00:19:02.768Z,45.60
2018-03-27T00:21:06.809Z,43.23
2018-03-27T00:23:10.829Z,48.73
2018-03-27T00:25:14.828Z,42.60
2018-03-27T00:27:18.634Z,41.70
2018-03-27T00:29:28.648Z,47.30
2018-03-27T00:31:38.744Z,44.60
2018-03-27T00:33:48.813Z,51.90
2018-03-27T00:35:58.796Z,53.10
2018-03-27T00:38:08.859Z,51.80
2018-03-27T00:40:18.955Z,49.80
2018-03-27T00:42:25.727Z,44.50
2018-03-27T00:44:29.754Z,53.90
2018-03-27T00:46:33.785Z,42.80
2018-03-27T00:48:37.874Z,54.63
2018-03-27T00:50:41.874Z,50.00
2018-03-27T00:52:45.914Z,42.53
2018-03-27T00:54:49.963Z,45.97
2018-03-27T00:56:53.965Z,44.00
2018-03-27T00:58:58.004Z,42.13
2018-03-27T01:01:02.022Z,48.40
2018-03-27T01:03:06.121Z,45.27
2018-03-27T01:05:10.174Z,41.70
2018-03-27T01:07:14.206Z,45.93
2018-03-27T01:09:18.222Z,40.90
2018-03-27T01:11:22.253Z,43.93
2018-03-27T01:13:26.266Z,44.00
2018-03-27T01:15:30.306Z,41.83
2018-03-27T01:17:34.343Z,46.00
2018-03-27T01:19:38.396Z,39.57
2018-03-27T01:21:42.432Z,42.83
2018-03-27T01:23:46.438Z,38.17
2018-03-27T01:25:50.469Z,42.10
2018-03-27T01:27:54.484Z,41.80
2018-03-27T01:29:58.533Z,43.53
2018-03-27T01:32:02.559Z,39.23
2018-03-27T01:34:06.572Z,42.03
2018-03-27T01:36:10.605Z,49.57
2018-03-27T01:38:14.617Z,38.80
2018-03-27T01:40:18.657Z,38.63
2018-03-27T01:42:22.669Z,38.63
2018-03-27T01:44:26.701Z,40.47
2018-03-27T01:46:30.752Z,39.80
2018-03-27T01:48:34.743Z,51.03
2018-03-27T01:50:38.934Z,36.87
2018-03-27T01:52:42.978Z,41.23
2018-03-27T01:54:46.986Z,44.90
2018-03-27T01:56:51.011Z,45.40
2018-03-27T01:58:55.016Z,40.70
2018-03-27T02:00:59.044Z,40.23
2018-03-27T02:03:03.070Z,44.40
2018-03-27T02:05:07.099Z,37.33
2018-03-27T02:07:11.163Z,41.90
2018-03-27T02:09:15.171Z,47.40
2018-03-27T02:11:25.032Z,53.70
2018-03-27T02:13:34.951Z,54.73
2018-03-27T02:15:44.893Z,45.27
2018-03-27T02:17:55.744Z,46.90
2018-03-27T02:20:05.612Z,53.57
2018-03-27T02:22:09.657Z,47.73
2018-03-27T02:24:23.582Z,49.73
2018-03-27T02:26:27.595Z,55.13
2018-03-27T02:28:31.615Z,51.37
2018-03-27T02:30:35.648Z,49.17
2018-03-27T02:32:39.667Z,52.40
2018-03-27T02:34:43.738Z,45.43
2018-03-27T02:36:47.743Z,38.03
2018-03-27T02:38:51.797Z,47.43
2018-03-27T02:40:55.807Z,42.37
2018-03-27T02:42:59.819Z,50.20
2018-03-27T02:45:03.842Z,44.20
2018-03-27T02:47:07.853Z,44.77
2018-03-27T02:49:11.906Z,49.17
2018-03-27T02:51:15.958Z,48.67
2018-03-27T02:53:20.010Z,56.63
2018-03-27T02:55:24.060Z,58.93
2018-03-27T02:57:28.093Z,60.13
2018-03-27T02:59:32.153Z,52.03
2018-03-27T03:01:36.162Z,53.80
2018-03-27T03:03:40.197Z,50.27
2018-03-27T03:05:44.248Z,46.27
2018-03-27T03:07:48.291Z,52.70
2018-03-27T03:09:52.387Z,46.77
2018-03-27T03:11:56.468Z,42.63
2018-03-27T03:14:00.526Z,44.60
2018-03-27T03:16:05.564Z,44.73
2018-03-27T03:18:09.586Z,55.30
2018-03-27T03:20:13.658Z,49.77
2018-03-27T03:22:17.753Z,51.70
2018-03-27T03:24:22.165Z,54.10
2018-03-27T03:26:26.192Z,48.77
2018-03-27T03:28:30.225Z,47.10
2018-03-27T03:30:34.378Z,52.97
2018-03-27T03:32:38.426Z,48.30
2018-03-27T03:34:42.500Z,43.57
2018-03-27T03:36:46.606Z,47.07
2018-03-27T03:38:50.678Z,46.00
2018-03-27T03:40:54.748Z,42.13
2018-03-27T03:42:58.765Z,51.83
2018-03-27T03:45:02.775Z,47.03
2018-03-27T03:47:06.895Z,46.20
2018-03-27T03:49:11.012Z,42.37
2018-03-27T03:51:15.119Z,48.17
2018-03-27T03:53:19.167Z,40.87
2018-03-27T03:55:23.206Z,47.43
2018-03-27T03:57:27.247Z,46.53
2018-03-27T03:59:31.295Z,47.60
2018-03-27T04:01:36.332Z,48.17
2018-03-27T04:03:40.671Z,48.23
2018-03-27T04:05:44.877Z,51.77
2018-03-27T04:07:48.968Z,45.13
2018-03-27T04:09:53.022Z,42.47
2018-03-27T04:11:57.073Z,44.63
2018-03-27T04:14:01.095Z,43.10
2018-03-27T04:16:05.198Z,44.77
2018-03-27T04:18:09.279Z,47.03
2018-03-27T04:20:13.367Z,49.40
2018-03-27T04:22:17.432Z,44.20
2018-03-27T04:24:21.432Z,43.57
2018-03-27T04:26:25.464Z,44.30
2018-03-27T04:28:29.600Z,48.17
2018-03-27T04:30:33.647Z,51.37
2018-03-27T04:32:38.043Z,57.10
2018-03-27T04:34:42.291Z,66.80
2018-03-27T04:36:46.323Z,63.27
2018-03-27T04:38:50.553Z,53.30
2018-03-27T04:40:54.587Z,55.67
2018-03-27T04:42:58.707Z,59.57
2018-03-27T04:45:02.764Z,64.90
2018-03-27T04:47:06.805Z,56.03
2018-03-27T04:49:10.847Z,55.50
2018-03-27T04:51:14.874Z,55.77
2018-03-27T04:53:18.899Z,53.50
2018-03-27T04:55:22.959Z,60.70
2018-03-27T04:57:27.000Z,61.57
2018-03-27T04:59:31.034Z,58.93
2018-03-27T05:01:35.054Z,45.30
2018-03-27T05:03:39.100Z,49.10
2018-03-27T05:05:43.161Z,48.03
2018-03-27T05:07:47.198Z,49.87
2018-03-27T05:09:51.238Z,56.30
2018-03-27T05:11:55.300Z,55.40
2018-03-27T05:13:59.363Z,56.50
2018-03-27T05:16:03.397Z,61.07
2018-03-27T05:18:07.422Z,57.43
2018-03-27T05:20:11.476Z,56.07
2018-03-27T05:22:15.509Z,57.53
2018-03-27T05:24:19.576Z,55.30
2018-03-27T05:26:23.692Z,76.17
2018-03-27T05:28:27.663Z,90.23
2018-03-27T05:30:35.549Z,76.47
2018-03-27T05:32:39.596Z,76.27
2018-03-27T05:34:43.642Z,63.00
2018-03-27T05:36:47.680Z,60.10
2018-03-27T05:38:51.699Z,54.83
2018-03-27T05:40:55.770Z,60.37
2018-03-27T05:42:59.777Z,62.27
2018-03-27T05:45:03.803Z,59.80
2018-03-27T05:47:07.841Z,54.10
2018-03-27T05:49:11.871Z,46.40
2018-03-27T05:51:15.924Z,60.83
2018-03-27T05:53:19.952Z,56.67
2018-03-27T05:55:23.973Z,63.43
2018-03-27T05:57:28.009Z,54.30
2018-03-27T05:59:32.025Z,56.33
2018-03-27T06:01:36.065Z,51.83
2018-03-27T06:03:40.082Z,56.50
2018-03-27T06:05:44.127Z,49.73
2018-03-27T06:07:48.168Z,48.20
2018-03-27T06:09:52.191Z,50.77
2018-03-27T06:11:56.263Z,49.37
2018-03-27T06:14:00.335Z,56.27
2018-03-27T06:16:04.360Z,41.40
2018-03-27T06:18:08.414Z,47.70
2018-03-27T06:20:12.485Z,42.13
2018-03-27T06:22:16.521Z,40.70
2018-03-27T06:24:20.533Z,39.63
2018-03-27T06:26:24.555Z,37.87
2018-03-27T06:28:28.590Z,38.23
2018-03-27T06:30:32.648Z,34.47
2018-03-27T06:32:36.721Z,42.50
2018-03-27T06:34:40.755Z,40.17
2018-03-27T06:36:44.769Z,42.57
2018-03-27T06:38:48.824Z,32.80
2018-03-27T06:40:52.840Z,33.77
2018-03-27T06:42:56.885Z,33.63
2018-03-27T06:45:00.912Z,37.97
2018-03-27T06:47:04.932Z,37.83
2018-03-27T06:49:09.365Z,37.93
2018-03-27T06:51:13.390Z,33.30
2018-03-27T06:53:17.429Z,34.40
2018-03-27T06:55:21.457Z,39.00
2018-03-27T06:57:25.469Z,36.70
2018-03-27T06:59:29.534Z,40.07
2018-03-27T07:01:33.535Z,32.47
2018-03-27T07:03:37.599Z,38.43
2018-03-27T07:05:41.615Z,36.93
2018-03-27T07:07:45.637Z,34.43
2018-03-27T07:09:51.658Z,35.43
2018-03-27T07:11:55.739Z,39.30
2018-03-27T07:13:59.813Z,42.90
2018-03-27T07:16:03.863Z,36.73
2018-03-27T07:18:07.900Z,39.80
2018-03-27T07:20:11.988Z,37.77
2018-03-27T07:22:16.006Z,34.53
2018-03-27T07:24:20.041Z,36.53
2018-03-27T07:26:24.157Z,38.03
2018-03-27T07:28:28.380Z,38.63
2018-03-27T07:30:32.407Z,33.73
2018-03-27T07:32:36.426Z,32.90
2018-03-27T07:34:40.432Z,35.60
2018-03-27T07:36:44.471Z,36.47
2018-03-27T07:38:48.518Z,28.60
2018-03-27T07:40:53.176Z,41.03
2018-03-27T07:42:57.326Z,35.27
2018-03-27T07:45:01.340Z,36.67
2018-03-27T07:47:05.381Z,39.70
2018-03-27T07:49:09.436Z,37.03
2018-03-27T07:51:13.477Z,38.83
2018-03-27T07:53:17.512Z,35.57
2018-03-27T07:55:21.544Z,31.07
2018-03-27T07:57:25.593Z,35.67
2018-03-27T07:59:29.604Z,30.00
2018-03-27T08:01:33.635Z,30.07
2018-03-27T08:03:37.666Z,31.67
2018-03-27T08:05:41.667Z,33.27
2018-03-27T08:07:45.698Z,30.90
2018-03-27T08:09:49.717Z,34.80
2018-03-27T08:11:53.752Z,30.10
2018-03-27T08:13:57.823Z,29.30
2018-03-27T08:16:01.889Z,31.43
2018-03-27T08:18:05.952Z,33.17
2018-03-27T08:20:10.035Z,28.97
2018-03-27T08:22:14.080Z,23.57
2018-03-27T08:24:18.212Z,32.20
2018-03-27T08:26:22.186Z,26.67
2018-03-27T08:28:26.221Z,29.23
2018-03-27T08:30:30.230Z,27.00
2018-03-27T08:32:34.272Z,22.63
2018-03-27T08:34:38.285Z,22.10
2018-03-27T08:36:42.288Z,25.93
2018-03-27T08:38:46.322Z,24.77
2018-03-27T08:40:50.473Z,25.60
2018-03-27T08:42:54.541Z,22.93
2018-03-27T08:44:58.583Z,26.33
2018-03-27T08:47:02.615Z,21.23
2018-03-27T08:49:06.665Z,24.33
2018-03-27T08:51:10.686Z,16.03
2018-03-27T08:53:14.894Z,18.90
2018-03-27T08:55:18.941Z,19.70
2018-03-27T08:57:22.951Z,15.07
2018-03-27T08:59:27.322Z,14.77
2018-03-27T09:01:31.340Z,12.57
2018-03-27T09:03:35.467Z,16.90
2018-03-27T09:05:42.272Z,17.20
2018-03-27T09:07:46.354Z,18.90
2018-03-27T09:09:50.378Z,19.80
2018-03-27T09:11:54.407Z,18.33
2018-03-27T09:13:58.462Z,18.23
2018-03-27T09:16:02.494Z,18.37
2018-03-27T09:18:06.534Z,22.17
2018-03-27T09:20:10.580Z,18.47
2018-03-27T09:22:14.595Z,14.87
2018-03-27T09:24:18.719Z,17.17
2018-03-27T09:26:22.796Z,14.00
2018-03-27T09:28:26.809Z,17.13
2018-03-27T09:30:31.872Z,13.93
2018-03-27T09:32:35.885Z,15.10
2018-03-27T09:34:39.978Z,16.43
2018-03-27T09:36:44.369Z,20.00
2018-03-27T09:38:48.384Z,21.70
2018-03-27T09:40:52.485Z,19.10
2018-03-27T09:42:56.617Z,16.17
2018-03-27T09:45:00.676Z,21.00
2018-03-27T09:47:04.915Z,16.83
2018-03-27T09:49:09.023Z,16.17
2018-03-27T09:51:13.236Z,13.93
2018-03-27T09:53:17.448Z,16.50
2018-03-27T09:55:21.598Z,24.13
2018-03-27T09:57:25.769Z,15.40
2018-03-27T09:59:30.097Z,17.90
2018-03-27T10:01:39.982Z,14.93
2018-03-27T10:03:44.261Z,20.50
2018-03-27T10:05:48.420Z,19.93
2018-03-27T10:07:53.739Z,18.17
2018-03-27T10:09:57.901Z,20.80
2018-03-27T10:12:02.029Z,18.80
2018-03-27T10:14:06.039Z,20.80
2018-03-27T10:16:10.069Z,15.80
2018-03-27T10:18:14.117Z,17.80
2018-03-27T10:20:18.148Z,14.67
2018-03-27T10:22:22.181Z,14.50
2018-03-27T10:24:26.206Z,20.80
2018-03-27T10:26:30.241Z,13.80
2018-03-27T10:28:35.429Z,10.90
2018-03-27T10:30:39.442Z,13.73
2018-03-27T10:32:43.587Z,22.70
2018-03-27T10:34:47.598Z,17.93
2018-03-27T10:36:52.660Z,15.77
2018-03-27T10:38:56.705Z,14.60
2018-03-27T10:41:00.732Z,14.30
2018-03-27T10:43:04.790Z,13.03
2018-03-27T10:45:08.811Z,15.43
2018-03-27T10:47:12.827Z,15.80
2018-03-27T10:49:16.887Z,15.37
2018-03-27T10:51:20.914Z,11.20
2018-03-27T10:53:24.956Z,13.30
2018-03-27T10:55:28.969Z,11.43
2018-03-27T10:57:32.982Z,11.60
2018-03-27T10:59:37.018Z,15.43
2018-03-27T11:01:41.023Z,13.03
2018-03-27T11:03:45.123Z,17.07
2018-03-27T11:05:49.144Z,14.20
2018-03-27T11:07:53.216Z,14.70
2018-03-27T11:09:57.304Z,14.57
2018-03-27T11:12:01.480Z,19.20
2018-03-27T11:14:05.740Z,13.30
2018-03-27T11:16:09.764Z,16.63
2018-03-27T11:18:13.769Z,12.53
2018-03-27T11:20:17.834Z,13.50
2018-03-27T11:22:21.851Z,16.50
2018-03-27T11:24:26.942Z,24.30
2018-03-27T11:26:31.218Z,13.30
2018-03-27T11:28:35.487Z,14.33
2018-03-27T11:30:39.525Z,16.90
2018-03-27T11:32:43.558Z,27.07
2018-03-27T11:34:47.603Z,20.37
2018-03-27T11:36:51.612Z,13.43
2018-03-27T11:38:55.625Z,14.00
2018-03-27T11:40:59.730Z,15.33
2018-03-27T11:43:03.745Z,14.93
2018-03-27T11:45:07.818Z,17.00
2018-03-27T11:47:11.840Z,13.30
2018-03-27T11:49:15.857Z,14.60
2018-03-27T11:51:20.065Z,18.23
2018-03-27T11:53:24.096Z,14.13
2018-03-27T11:55:28.157Z,16.20
2018-03-27T11:57:32.330Z,16.80
2018-03-27T11:59:36.381Z,18.33
2018-03-27T12:01:40.448Z,31.83
2018-03-27T12:03:44.466Z,19.23
2018-03-27T12:05:48.517Z,17.40
2018-03-27T12:07:52.533Z,21.47
2018-03-27T12:09:56.569Z,16.90
2018-03-27T12:12:00.644Z,20.03
2018-03-27T12:14:04.672Z,20.77
2018-03-27T12:16:08.666Z,22.80
2018-03-27T12:18:12.686Z,18.97
2018-03-27T12:20:16.675Z,21.60
2018-03-27T12:22:20.709Z,18.00
2018-03-27T12:24:24.722Z,18.50
2018-03-27T12:26:28.728Z,20.63
2018-03-27T12:28:32.764Z,19.13
2018-03-27T12:30:36.763Z,25.93
2018-03-27T12:32:40.806Z,17.90
2018-03-27T12:34:44.818Z,21.70
2018-03-27T12:36:56.537Z,18.73
2018-03-27T12:39:00.592Z,19.43
2018-03-27T12:41:04.704Z,21.60
2018-03-27T12:43:08.752Z,19.30
2018-03-27T12:45:12.759Z,23.73
2018-03-27T12:47:16.768Z,23.07
2018-03-27T12:49:20.917Z,32.57
2018-03-27T12:51:25.055Z,26.23
2018-03-27T12:53:29.085Z,22.30
2018-03-27T12:55:33.127Z,28.60
2018-03-27T12:57:37.151Z,25.07
2018-03-27T12:59:41.207Z,24.63
2018-03-27T13:01:45.530Z,22.23
2018-03-27T13:03:49.644Z,23.50
2018-03-27T13:05:53.905Z,23.03
2018-03-27T13:07:58.059Z,27.27
2018-03-27T13:10:02.111Z,25.27
2018-03-27T13:12:06.468Z,27.07
2018-03-27T13:14:10.553Z,28.37
2018-03-27T13:16:14.664Z,25.13
2018-03-27T13:18:18.684Z,28.73
2018-03-27T13:20:22.714Z,25.40
2018-03-27T13:22:26.807Z,28.07
2018-03-27T13:24:30.844Z,35.83
2018-03-27T13:26:34.886Z,35.20
2018-03-27T13:28:38.946Z,31.40
2018-03-27T13:30:43.006Z,37.83
2018-03-27T13:32:47.244Z,36.57
2018-03-27T13:34:51.729Z,33.90
2018-03-27T13:36:55.975Z,33.30
2018-03-27T13:39:00.061Z,34.53
2018-03-27T13:41:04.411Z,30.07
2018-03-27T13:43:08.511Z,35.93
2018-03-27T13:45:12.609Z,36.00
2018-03-27T13:47:16.642Z,32.37
2018-03-27T13:49:20.810Z,34.47
2018-03-27T13:51:24.967Z,31.83
2018-03-27T13:53:29.082Z,35.43
2018-03-27T13:55:33.121Z,33.10
2018-03-27T13:57:37.251Z,34.90
2018-03-27T13:59:41.283Z,32.27
2018-03-27T14:01:45.497Z,32.50
2018-03-27T14:03:49.546Z,36.03
2018-03-27T14:05:53.664Z,38.33
2018-03-27T14:07:57.825Z,37.10
2018-03-27T14:10:02.012Z,34.23
2018-03-27T14:12:06.189Z,30.80
2018-03-27T14:14:10.244Z,35.30
2018-03-27T14:16:14.443Z,36.33
2018-03-27T14:18:18.454Z,36.10
2018-03-27T14:20:22.602Z,36.07
2018-03-27T14:22:26.978Z,38.77
2018-03-27T14:24:30.985Z,26.90
2018-03-27T14:26:35.080Z,29.33
2018-03-27T14:28:39.143Z,33.90
2018-03-27T14:30:44.273Z,37.90
2018-03-27T14:32:48.317Z,39.17
2018-03-27T14:34:52.313Z,31.63
2018-03-27T14:36:56.349Z,30.57
2018-03-27T14:39:00.351Z,35.20
2018-03-27T14:41:04.398Z,34.90
2018-03-27T14:43:08.430Z,33.70
2018-03-27T14:45:12.464Z,39.07
2018-03-27T14:47:16.545Z,34.53
2018-03-27T14:49:20.611Z,30.97
2018-03-27T14:51:24.664Z,36.00
2018-03-27T14:53:28.726Z,32.13
2018-03-27T14:55:32.765Z,31.23
2018-03-27T14:57:36.799Z,28.00
2018-03-27T14:59:40.917Z,31.77
2018-03-27T15:01:44.974Z,28.87
2018-03-27T15:03:49.043Z,26.80
2018-03-27T15:05:53.137Z,33.37
2018-03-27T15:07:57.197Z,30.30
2018-03-27T15:10:01.290Z,26.90
2018-03-27T15:12:05.366Z,28.33
2018-03-27T15:14:09.420Z,30.40
2018-03-27T15:16:13.450Z,31.10
2018-03-27T15:18:17.599Z,30.23
2018-03-27T15:20:21.761Z,27.20
2018-03-27T15:22:29.589Z,26.80
2018-03-27T15:24:34.733Z,26.27
2018-03-27T15:26:38.935Z,30.43
2018-03-27T15:28:42.950Z,26.03
2018-03-27T15:30:47.057Z,29.03
2018-03-27T15:32:51.066Z,25.83
2018-03-27T15:34:55.128Z,27.67
2018-03-27T15:36:59.136Z,25.53
2018-03-27T15:39:03.193Z,27.37
2018-03-27T15:41:08.049Z,24.23
2018-03-27T15:43:12.094Z,27.43
2018-03-27T15:45:16.183Z,25.30
2018-03-27T15:47:20.503Z,25.20
2018-03-27T15:49:24.552Z,26.03
2018-03-27T15:51:28.574Z,29.00
2018-03-27T15:53:33.067Z,38.20
2018-03-27T15:55:37.147Z,32.70
2018-03-27T15:57:41.400Z,38.07
2018-03-27T15:59:45.418Z,38.60
2018-03-27T16:01:49.574Z,32.17
2018-03-27T16:03:53.595Z,37.30
2018-03-27T16:05:57.774Z,35.10
2018-03-27T16:08:01.829Z,32.93
2018-03-27T16:10:05.827Z,33.70
2018-03-27T16:12:09.913Z,31.10
2018-03-27T16:14:13.932Z,33.60
2018-03-27T16:16:18.033Z,31.80
2018-03-27T16:18:22.175Z,36.73
2018-03-27T16:20:26.196Z,30.20
2018-03-27T16:22:30.361Z,24.30
2018-03-27T16:24:34.405Z,23.33
2018-03-27T16:26:38.484Z,21.70
2018-03-27T16:28:42.579Z,19.70
2018-03-27T16:30:48.152Z,20.47
2018-03-27T16:32:52.251Z,27.93
2018-03-27T16:34:56.312Z,17.77
2018-03-27T16:37:00.358Z,14.30
2018-03-27T16:39:04.394Z,12.20
2018-03-27T16:41:08.490Z,7.97
2018-03-27T16:43:12.564Z,10.90
2018-03-27T16:45:16.563Z,18.10
2018-03-27T16:47:20.635Z,25.43
2018-03-27T16:49:24.669Z,32.17
2018-03-27T16:51:28.697Z,21.83
2018-03-27T16:53:32.729Z,10.97
2018-03-27T16:55:36.746Z,7.97
2018-03-27T16:57:40.773Z,7.83
2018-03-27T16:59:45.800Z,8.13
2018-03-27T17:01:49.798Z,9.10
2018-03-27T17:03:53.861Z,9.73
2018-03-27T17:05:58.034Z,11.40
2018-03-27T17:08:02.082Z,8.60
2018-03-27T17:10:06.101Z,8.93
2018-03-27T17:12:10.109Z,11.17
2018-03-27T17:14:14.163Z,10.07
2018-03-27T17:16:18.256Z,8.03
2018-03-27T17:18:22.279Z,8.83
2018-03-27T17:20:26.273Z,8.87
2018-03-27T17:22:30.364Z,9.90
2018-03-27T17:24:34.682Z,10.63
2018-03-27T17:26:38.771Z,10.10
2018-03-27T17:28:42.790Z,14.43
2018-03-27T17:30:47.289Z,9.57
2018-03-27T17:32:51.386Z,10.00
2018-03-27T17:34:55.604Z,9.67
2018-03-27T17:36:59.643Z,11.60
2018-03-27T17:39:03.700Z,10.97
2018-03-27T17:41:07.729Z,10.67
2018-03-27T17:43:11.748Z,13.83
2018-03-27T17:45:15.790Z,13.50
2018-03-27T17:47:19.809Z,20.03
2018-03-27T17:49:23.823Z,12.47
2018-03-27T17:51:27.949Z,13.20
2018-03-27T17:53:32.186Z,11.80
2018-03-27T17:55:36.477Z,11.47
2018-03-27T17:57:40.502Z,10.90
2018-03-27T17:59:44.704Z,14.07
2018-03-27T18:01:48.741Z,14.13
2018-03-27T18:03:52.828Z,15.80
2018-03-27T18:05:57.778Z,13.43
2018-03-27T18:08:02.116Z,12.70
2018-03-27T18:10:06.859Z,15.30
2018-03-27T18:12:11.166Z,13.37
2018-03-27T18:14:15.596Z,15.50
2018-03-27T18:16:20.178Z,15.30
2018-03-27T18:18:24.818Z,13.70
2018-03-27T18:20:32.280Z,17.00
2018-03-27T18:22:36.755Z,15.03
2018-03-27T18:24:41.207Z,15.40
2018-03-27T18:26:45.391Z,15.53
2018-03-27T18:28:49.418Z,16.23
2018-03-27T18:30:53.511Z,14.93
2018-03-27T18:32:57.535Z,16.87
2018-03-27T18:35:03.038Z,17.93
2018-03-27T18:37:07.139Z,18.83
2018-03-27T18:39:11.188Z,19.30
2018-03-27T18:41:15.221Z,19.20
2018-03-27T18:43:19.269Z,24.07
2018-03-27T18:45:23.310Z,21.63
2018-03-27T18:47:27.353Z,21.23
2018-03-27T18:49:31.381Z,28.40
2018-03-27T18:51:35.453Z,26.77
2018-03-27T18:53:39.520Z,37.67
2018-03-27T18:55:43.654Z,26.77
2018-03-27T18:57:51.966Z,29.07
2018-03-27T18:59:56.126Z,27.87
2018-03-27T19:02:00.365Z,28.03
2018-03-27T19:04:04.454Z,28.10
2018-03-27T19:06:08.537Z,39.80
2018-03-27T19:08:12.587Z,45.60
2018-03-27T19:10:16.654Z,39.50
2018-03-27T19:12:20.694Z,44.87
2018-03-27T19:14:24.739Z,38.90
2018-03-27T19:16:28.842Z,44.23
2018-03-27T19:18:32.875Z,49.13
2018-03-27T19:20:36.908Z,46.27
2018-03-27T19:22:41.032Z,53.00
2018-03-27T19:24:45.157Z,42.90
2018-03-27T19:26:49.160Z,49.13
2018-03-27T19:28:53.250Z,50.33
2018-03-27T19:30:58.676Z,51.60
2018-03-27T19:33:03.084Z,57.73
2018-03-27T19:35:07.320Z,59.50
2018-03-27T19:37:11.352Z,62.87
2018-03-27T19:39:15.697Z,61.10
2018-03-27T19:41:19.953Z,58.23
2018-03-27T19:43:24.061Z,63.83
2018-03-27T19:45:28.282Z,65.87
2018-03-27T19:47:32.301Z,62.90
2018-03-27T19:49:36.449Z,70.00
2018-03-27T19:51:40.835Z,57.90
2018-03-27T19:53:44.840Z,56.63
2018-03-27T19:55:48.924Z,63.93
2018-03-27T19:57:52.944Z,56.13
2018-03-27T19:59:58.014Z,57.20
2018-03-27T20:02:02.072Z,50.50
2018-03-27T20:04:06.098Z,50.47
2018-03-27T20:06:10.121Z,46.47
2018-03-27T20:08:14.164Z,59.23
2018-03-27T20:10:18.215Z,46.20
2018-03-27T20:12:22.250Z,49.27
2018-03-27T20:14:26.255Z,49.27
2018-03-27T20:16:30.377Z,45.73
2018-03-27T20:18:34.447Z,68.03
2018-03-27T20:20:38.474Z,55.07
2018-03-27T20:22:42.517Z,63.13
2018-03-27T20:24:46.556Z,49.43
2018-03-27T20:26:50.673Z,48.33
2018-03-27T20:28:54.702Z,52.63
2018-03-27T20:30:58.750Z,56.10
2018-03-27T20:33:02.778Z,57.57
2018-03-27T20:35:06.814Z,46.20
2018-03-27T20:37:10.853Z,48.43
2018-03-27T20:39:14.896Z,47.43
2018-03-27T20:41:18.963Z,39.73
2018-03-27T20:43:23.036Z,39.83
2018-03-27T20:45:27.062Z,37.77
2018-03-27T20:47:32.095Z,41.53
2018-03-27T20:49:36.298Z,38.97
2018-03-27T20:51:40.641Z,44.53
2018-03-27T20:53:45.144Z,32.40
2018-03-27T20:55:49.175Z,37.60
2018-03-27T20:57:53.244Z,47.33
2018-03-27T20:59:57.244Z,39.23
2018-03-27T21:02:01.273Z,40.73
2018-03-27T21:04:05.343Z,40.40
2018-03-27T21:06:10.476Z,46.03
2018-03-27T21:08:14.534Z,42.20
2018-03-27T21:10:18.727Z,41.03
2018-03-27T21:12:22.735Z,50.80
2018-03-27T21:14:26.798Z,51.47
2018-03-27T21:16:30.951Z,33.37
2018-03-27T21:18:34.995Z,38.60
2018-03-27T21:20:39.105Z,38.50
2018-03-27T21:22:43.115Z,41.23
2018-03-27T21:24:47.552Z,36.13
2018-03-27T21:26:51.613Z,37.60
2018-03-27T21:28:55.714Z,34.00
2018-03-27T21:30:59.886Z,36.27
2018-03-27T21:33:04.552Z,38.90
2018-03-27T21:35:08.682Z,40.63
2018-03-27T21:37:13.429Z,35.30
2018-03-27T21:39:17.549Z,33.93
2018-03-27T21:41:21.900Z,46.80
2018-03-27T21:43:25.949Z,46.67
2018-03-27T21:45:30.787Z,40.23
2018-03-27T21:47:35.105Z,38.20
2018-03-27T21:49:39.325Z,51.83
2018-03-27T21:51:43.353Z,32.47
2018-03-27T21:53:47.516Z,34.20
2018-03-27T21:55:51.625Z,35.20
2018-03-27T21:57:55.659Z,29.70
2018-03-27T21:59:59.702Z,34.67
2018-03-27T22:02:03.718Z,29.30
2018-03-27T22:04:07.794Z,28.27
2018-03-27T22:06:11.807Z,27.83
2018-03-27T22:08:15.831Z,30.60
2018-03-27T22:10:19.863Z,33.60
2018-03-27T22:12:23.891Z,22.70
2018-03-27T22:14:27.963Z,23.40
2018-03-27T22:16:32.051Z,25.50
2018-03-27T22:18:36.106Z,27.13
2018-03-27T22:20:40.181Z,31.27
2018-03-27T22:22:44.221Z,32.00
2018-03-27T22:24:48.359Z,28.73
2018-03-27T22:26:52.397Z,29.97
2018-03-27T22:28:56.405Z,27.10
2018-03-27T22:31:00.651Z,37.00
2018-03-27T22:33:04.692Z,34.73
2018-03-27T22:35:08.715Z,41.53
2018-03-27T22:37:12.887Z,38.87
2018-03-27T22:39:17.114Z,38.90
2018-03-27T22:41:21.199Z,39.70
2018-03-27T22:43:25.216Z,36.63
2018-03-27T22:45:29.233Z,37.57
2018-03-27T22:47:33.265Z,38.60
2018-03-27T22:49:37.281Z,41.33
2018-03-27T22:51:41.295Z,64.27
2018-03-27T22:53:45.426Z,43.37
2018-03-27T22:55:49.480Z,56.93
2018-03-27T22:57:53.537Z,47.03
2018-03-27T22:59:57.568Z,44.73
2018-03-27T23:02:01.675Z,50.97
2018-03-27T23:04:05.710Z,54.50
2018-03-27T23:06:09.734Z,65.87
2018-03-27T23:08:13.772Z,104.17
2018-03-27T23:10:17.786Z,82.87
2018-03-27T23:12:21.841Z,123.73
2018-03-27T23:14:25.854Z,122.57
2018-03-27T23:16:29.913Z,88.87
2018-03-27T23:18:33.949Z,104.30
2018-03-27T23:20:37.986Z,123.30
2018-03-27T23:22:41.993Z,171.17
2018-03-27T23:24:46.018Z,113.27
2018-03-27T23:26:50.036Z,117.40
2018-03-27T23:28:54.141Z,128.40
2018-03-27T23:30:58.142Z,130.50
2018-03-27T23:33:02.164Z,137.40
2018-03-27T23:35:06.229Z,135.83
2018-03-27T23:37:10.243Z,117.50
2018-03-27T23:39:14.304Z,148.60
2018-03-27T23:41:18.352Z,158.20
2018-03-27T23:43:22.384Z,141.83
2018-03-27T23:45:26.446Z,131.97
2018-03-27T23:47:30.469Z,187.67
2018-03-27T23:49:34.580Z,152.97
2018-03-27T23:51:38.611Z,153.47
2018-03-27T23:53:42.652Z,170.73
2018-03-27T23:55:46.693Z,178.37
2018-03-27T23:57:50.727Z,151.43
2018-03-27T23:59:54.804Z,159.47
